createdAt,value
2022-10-23T00:00:27.118Z,22.87
2022-10-23T00:01:20.528Z,22.02
2022-10-23T00:02:07.531Z,21.75
2022-10-23T00:02:55.229Z,21.17
2022-10-23T00:03:42.777Z,22.23
2022-10-23T00:04:29.847Z,23.23
2022-10-23T00:05:16.790Z,22.15
2022-10-23T00:06:05.345Z,21.85
2022-10-23T00:06:52.428Z,21.58
2022-10-23T00:07:39.427Z,23.20
2022-10-23T00:08:26.437Z,23.00
2022-10-23T00:09:17.100Z,23.33
2022-10-23T00:10:51.017Z,21.80
2022-10-23T00:11:37.938Z,21.00
2022-10-23T00:12:24.901Z,21.42
2022-10-23T00:13:11.879Z,20.95
2022-10-23T00:14:01.037Z,22.10
2022-10-23T00:14:48.006Z,22.17
2022-10-23T00:15:36.125Z,20.52
2022-10-23T00:16:23.288Z,20.83
2022-10-23T00:17:12.509Z,21.65
2022-10-23T00:17:59.360Z,21.55
2022-10-23T00:18:46.564Z,20.08
2022-10-23T00:19:33.533Z,21.08
2022-10-23T00:20:20.457Z,22.08
2022-10-23T00:21:10.094Z,22.75
2022-10-23T00:21:56.896Z,22.00
2022-10-23T00:22:43.793Z,21.27
2022-10-23T00:23:30.752Z,20.42
2022-10-23T00:24:17.791Z,20.40
2022-10-23T00:25:08.810Z,20.80
2022-10-23T00:25:55.703Z,20.25
2022-10-23T00:26:42.747Z,20.60
2022-10-23T00:27:29.642Z,20.85
2022-10-23T00:28:16.638Z,21.27
2022-10-23T00:29:03.649Z,21.73
2022-10-23T00:29:50.535Z,19.77
2022-10-23T00:30:37.511Z,20.48
2022-10-23T00:31:25.015Z,19.87
2022-10-23T00:32:11.968Z,20.88
2022-10-23T00:32:58.881Z,19.30
2022-10-23T00:33:46.101Z,19.62
2022-10-23T00:34:33.036Z,20.90
2022-10-23T00:35:19.881Z,19.60
2022-10-23T00:36:08.179Z,19.15
2022-10-23T00:36:55.098Z,17.65
2022-10-23T00:37:42.194Z,18.95
2022-10-23T00:38:29.278Z,20.00
2022-10-23T00:39:16.148Z,19.17
2022-10-23T00:40:03.713Z,19.98
2022-10-23T00:40:51.800Z,18.73
2022-10-23T00:41:38.775Z,18.15
2022-10-23T00:42:25.818Z,20.95
2022-10-23T00:43:21.425Z,20.05
2022-10-23T00:44:19.321Z,19.65
2022-10-23T00:45:14.485Z,18.60
2022-10-23T00:46:01.786Z,18.50
2022-10-23T00:46:49.289Z,20.25
2022-10-23T00:47:36.213Z,19.58
2022-10-23T00:48:23.361Z,19.95
2022-10-23T00:49:58.068Z,20.00
2022-10-23T00:50:45.499Z,18.58
2022-10-23T00:51:37.311Z,19.42
2022-10-23T00:52:24.277Z,19.73
2022-10-23T00:53:12.650Z,19.00
2022-10-23T00:54:12.785Z,18.55
2022-10-23T00:55:08.231Z,18.17
2022-10-23T00:55:57.894Z,17.80
2022-10-23T00:56:45.556Z,19.37
2022-10-23T00:57:32.528Z,19.37
2022-10-23T00:58:20.526Z,19.10
2022-10-23T00:59:07.523Z,18.58
2022-10-23T00:59:54.514Z,19.73
2022-10-23T01:00:51.137Z,18.65
2022-10-23T01:01:38.259Z,19.30
2022-10-23T01:02:25.386Z,19.17
2022-10-23T01:03:13.173Z,19.50
2022-10-23T01:04:01.022Z,19.62
2022-10-23T01:04:47.988Z,18.42
2022-10-23T01:06:03.820Z,19.98
2022-10-23T01:07:13.733Z,20.05
2022-10-23T01:08:10.726Z,19.33
2022-10-23T01:09:12.538Z,19.37
2022-10-23T01:10:07.537Z,18.23
2022-10-23T01:11:17.987Z,18.00
2022-10-23T01:12:35.848Z,17.62
2022-10-23T01:13:39.967Z,18.40
2022-10-23T01:14:51.200Z,16.92
2022-10-23T01:15:45.206Z,17.60
2022-10-23T01:16:46.204Z,17.30
2022-10-23T01:17:44.461Z,16.45
2022-10-23T01:18:42.387Z,15.82
2022-10-23T01:19:44.469Z,17.40
2022-10-23T01:21:01.002Z,17.60
2022-10-23T01:21:53.787Z,16.92
2022-10-23T01:22:55.326Z,17.30
2022-10-23T01:24:06.779Z,16.33
2022-10-23T01:24:59.204Z,16.23
2022-10-23T01:26:07.465Z,16.85
2022-10-23T01:26:57.074Z,17.15
2022-10-23T01:27:47.490Z,15.93
2022-10-23T01:28:45.046Z,15.85
2022-10-23T01:29:59.678Z,15.18
2022-10-23T01:30:47.372Z,15.57
2022-10-23T01:31:43.103Z,15.63
2022-10-23T01:32:48.317Z,15.75
2022-10-23T01:33:48.770Z,14.65
2022-10-23T01:34:47.622Z,16.05
2022-10-23T01:35:41.687Z,15.18
2022-10-23T01:36:29.769Z,15.57
2022-10-23T01:37:23.943Z,16.77
2022-10-23T01:38:18.418Z,17.17
2022-10-23T01:39:09.697Z,16.17
2022-10-23T01:40:01.552Z,16.90
2022-10-23T01:41:16.278Z,16.80
2022-10-23T01:42:10.947Z,16.98
2022-10-23T01:43:01.775Z,17.60
2022-10-23T01:43:52.380Z,16.62
2022-10-23T01:45:40.562Z,15.10
2022-10-23T01:46:27.759Z,15.80
2022-10-23T01:47:17.715Z,16.25
2022-10-23T01:48:06.127Z,12.15
2022-10-23T01:48:56.545Z,16.20
2022-10-23T01:49:44.628Z,16.85
2022-10-23T01:50:32.365Z,16.42
2022-10-23T01:51:21.446Z,18.08
2022-10-23T01:52:12.290Z,17.08
2022-10-23T01:52:59.574Z,17.60
2022-10-23T01:53:48.836Z,17.12
2022-10-23T01:54:38.899Z,16.62
2022-10-23T01:55:26.717Z,16.73
2022-10-23T01:56:26.234Z,16.62
2022-10-23T01:57:16.750Z,17.00
2022-10-23T01:58:04.359Z,16.05
2022-10-23T01:58:53.153Z,15.60
2022-10-23T01:59:44.994Z,15.23
2022-10-23T02:00:32.019Z,14.93
2022-10-23T02:01:21.221Z,15.70
2022-10-23T02:02:10.716Z,17.42
2022-10-23T02:02:58.947Z,16.60
2022-10-23T02:03:46.329Z,16.62
2022-10-23T02:04:40.623Z,16.62
2022-10-23T02:05:29.601Z,16.55
2022-10-23T02:06:16.631Z,16.42
2022-10-23T02:07:03.750Z,17.55
2022-10-23T02:07:51.356Z,17.17
2022-10-23T02:08:38.458Z,17.90
2022-10-23T02:09:25.908Z,17.17
2022-10-23T02:10:13.431Z,17.35
2022-10-23T02:11:18.994Z,18.95
2022-10-23T02:12:09.511Z,17.12
2022-10-23T02:12:59.005Z,18.60
2022-10-23T02:14:08.900Z,17.55
2022-10-23T02:15:14.570Z,17.30
2022-10-23T02:16:09.074Z,17.48
2022-10-23T02:16:58.329Z,17.70
2022-10-23T02:18:04.264Z,18.20
2022-10-23T02:19:20.378Z,16.95
2022-10-23T02:20:30.595Z,16.12
2022-10-23T02:21:32.392Z,17.58
2022-10-23T02:22:27.653Z,17.73
2022-10-23T02:23:34.280Z,18.92
2022-10-23T02:24:29.573Z,17.05
2022-10-23T02:25:24.560Z,17.45
2022-10-23T02:26:32.280Z,16.60
2022-10-23T02:27:34.806Z,16.70
2022-10-23T02:28:25.798Z,16.67
2022-10-23T02:29:26.791Z,18.30
2022-10-23T02:30:15.984Z,18.37
2022-10-23T02:31:03.491Z,18.77
2022-10-23T02:31:50.473Z,19.17
2022-10-23T02:32:40.460Z,17.85
2022-10-23T02:33:29.141Z,17.65
2022-10-23T02:34:16.042Z,17.02
2022-10-23T02:35:03.685Z,18.45
2022-10-23T02:35:50.804Z,18.12
2022-10-23T02:36:38.102Z,17.48
2022-10-23T02:37:25.784Z,18.00
2022-10-23T02:38:48.481Z,18.45
2022-10-23T02:39:35.519Z,16.20
2022-10-23T02:40:24.550Z,16.92
2022-10-23T02:41:32.102Z,17.02
2022-10-23T02:42:27.016Z,16.12
2022-10-23T02:43:21.311Z,15.73
2022-10-23T02:44:33.725Z,16.77
2022-10-23T02:45:32.541Z,15.63
2022-10-23T02:46:34.508Z,15.65
2022-10-23T02:47:31.627Z,16.65
2022-10-23T02:48:24.200Z,16.98
2022-10-23T02:49:15.219Z,17.02
2022-10-23T02:50:36.781Z,17.50
2022-10-23T02:51:34.407Z,16.60
2022-10-23T02:52:26.556Z,16.50
2022-10-23T02:53:16.482Z,17.33
2022-10-23T02:54:19.397Z,16.67
2022-10-23T02:55:15.546Z,17.55
2022-10-23T02:56:10.114Z,17.05
2022-10-23T02:57:06.677Z,17.30
2022-10-23T02:57:55.579Z,16.73
2022-10-23T02:59:11.429Z,16.45
2022-10-23T03:00:12.336Z,16.17
2022-10-23T03:01:58.792Z,16.02
2022-10-23T03:02:45.686Z,15.18
2022-10-23T03:03:42.339Z,16.30
2022-10-23T03:04:29.675Z,15.85
2022-10-23T03:05:20.441Z,16.23
2022-10-23T03:06:07.844Z,15.43
2022-10-23T03:06:55.037Z,16.40
2022-10-23T03:07:42.385Z,15.15
2022-10-23T03:08:29.601Z,15.50
2022-10-23T03:09:16.890Z,16.48
2022-10-23T03:10:05.422Z,15.77
2022-10-23T03:10:53.254Z,15.82
2022-10-23T03:11:40.185Z,17.58
2022-10-23T03:12:27.069Z,16.23
2022-10-23T03:13:14.033Z,15.93
2022-10-23T03:14:00.974Z,16.52
2022-10-23T03:14:47.784Z,17.08
2022-10-23T03:15:35.363Z,17.70
2022-10-23T03:16:22.400Z,15.93
2022-10-23T03:17:10.190Z,15.90
2022-10-23T03:17:57.118Z,16.25
2022-10-23T03:18:44.123Z,16.00
2022-10-23T03:19:31.099Z,16.55
2022-10-23T03:20:18.426Z,16.95
2022-10-23T03:21:05.397Z,16.70
2022-10-23T03:21:52.354Z,17.02
2022-10-23T03:22:40.187Z,16.52
2022-10-23T03:23:27.549Z,16.10
2022-10-23T03:24:14.515Z,15.93
2022-10-23T03:25:01.538Z,16.37
2022-10-23T03:25:48.512Z,16.27
2022-10-23T03:26:35.447Z,14.77
2022-10-23T03:27:22.333Z,15.88
2022-10-23T03:28:09.487Z,14.73
2022-10-23T03:28:56.510Z,15.32
2022-10-23T03:29:43.454Z,15.27
2022-10-23T03:30:30.371Z,15.23
2022-10-23T03:31:17.329Z,14.25
2022-10-23T03:32:04.880Z,15.25
2022-10-23T03:32:51.857Z,15.05
2022-10-23T03:33:38.742Z,14.90
2022-10-23T03:34:25.695Z,14.87
2022-10-23T03:35:12.591Z,14.40
2022-10-23T03:35:59.542Z,15.30
2022-10-23T03:36:46.417Z,14.85
2022-10-23T03:37:33.290Z,14.65
2022-10-23T03:38:20.337Z,14.45
2022-10-23T03:39:07.310Z,14.87
2022-10-23T03:39:54.222Z,14.77
2022-10-23T03:40:41.139Z,14.27
2022-10-23T03:41:28.013Z,15.07
2022-10-23T03:42:15.001Z,14.85
2022-10-23T03:43:02.052Z,14.77
2022-10-23T03:43:48.947Z,15.25
2022-10-23T03:44:35.890Z,16.20
2022-10-23T03:45:22.899Z,15.25
2022-10-23T03:46:13.007Z,15.40
2022-10-23T03:47:00.295Z,14.80
2022-10-23T03:47:47.236Z,15.18
2022-10-23T03:48:34.129Z,14.85
2022-10-23T03:49:21.098Z,15.02
2022-10-23T03:50:09.523Z,14.55
2022-10-23T03:50:56.476Z,14.38
2022-10-23T03:51:44.446Z,14.07
2022-10-23T03:52:31.307Z,13.98
2022-10-23T03:53:18.552Z,14.23
2022-10-23T03:54:05.718Z,13.95
2022-10-23T03:54:52.644Z,14.80
2022-10-23T03:55:39.519Z,14.00
2022-10-23T03:56:26.794Z,14.30
2022-10-23T03:57:13.669Z,13.93
2022-10-23T03:58:00.542Z,13.88
2022-10-23T03:58:47.981Z,14.63
2022-10-23T03:59:34.958Z,14.40
2022-10-23T04:00:22.330Z,13.62
2022-10-23T04:01:09.906Z,13.00
2022-10-23T04:01:57.149Z,13.40
2022-10-23T04:02:44.487Z,12.88
2022-10-23T04:03:31.853Z,13.90
2022-10-23T04:04:18.981Z,13.60
2022-10-23T04:05:06.407Z,13.88
2022-10-23T04:05:53.303Z,14.43
2022-10-23T04:06:40.533Z,13.52
2022-10-23T04:07:27.472Z,13.23
2022-10-23T04:08:17.672Z,13.80
2022-10-23T04:09:07.430Z,14.13
2022-10-23T04:09:54.587Z,13.35
2022-10-23T04:10:41.557Z,13.73
2022-10-23T04:11:28.447Z,12.63
2022-10-23T04:12:15.341Z,12.15
2022-10-23T04:13:02.287Z,12.00
2022-10-23T04:13:49.298Z,13.02
2022-10-23T04:14:36.212Z,12.45
2022-10-23T04:15:23.218Z,13.62
2022-10-23T04:16:10.199Z,12.73
2022-10-23T04:16:57.055Z,12.43
2022-10-23T04:17:44.016Z,12.05
2022-10-23T04:18:30.979Z,13.30
2022-10-23T04:19:17.894Z,11.90
2022-10-23T04:20:05.151Z,11.77
2022-10-23T04:20:52.718Z,11.68
2022-10-23T04:21:39.719Z,12.02
2022-10-23T04:22:28.385Z,11.35
2022-10-23T04:23:16.741Z,12.68
2022-10-23T04:24:03.911Z,11.95
2022-10-23T04:24:50.746Z,12.70
2022-10-23T04:25:37.664Z,11.75
2022-10-23T04:26:24.701Z,11.75
2022-10-23T04:27:11.639Z,12.70
2022-10-23T04:27:58.529Z,12.68
2022-10-23T04:28:45.497Z,12.23
2022-10-23T04:29:32.795Z,12.35
2022-10-23T04:30:19.855Z,11.43
2022-10-23T04:31:06.844Z,12.73
2022-10-23T04:31:53.832Z,13.40
2022-10-23T04:32:40.751Z,12.10
2022-10-23T04:33:27.824Z,12.95
2022-10-23T04:34:15.054Z,12.15
2022-10-23T04:35:02.242Z,14.18
2022-10-23T04:35:49.152Z,13.23
2022-10-23T04:36:36.040Z,13.10
2022-10-23T04:37:23.085Z,12.50
2022-10-23T04:38:10.083Z,12.65
2022-10-23T04:38:57.045Z,12.95
2022-10-23T04:39:43.995Z,12.48
2022-10-23T04:40:30.971Z,11.98
2022-10-23T04:41:17.841Z,11.98
2022-10-23T04:42:04.846Z,11.75
2022-10-23T04:42:51.773Z,12.27
2022-10-23T04:43:38.842Z,11.35
2022-10-23T04:44:25.781Z,11.40
2022-10-23T04:45:13.067Z,11.38
2022-10-23T04:46:00.066Z,11.32
2022-10-23T04:46:46.994Z,11.75
2022-10-23T04:47:33.989Z,11.15
2022-10-23T04:48:24.322Z,11.45
2022-10-23T04:49:13.919Z,12.82
2022-10-23T04:50:00.816Z,11.75
2022-10-23T04:50:58.738Z,11.85
2022-10-23T04:51:45.674Z,10.95
2022-10-23T04:52:32.523Z,10.82
2022-10-23T04:53:19.497Z,10.95
2022-10-23T04:54:06.598Z,11.50
2022-10-23T04:54:53.713Z,11.60
2022-10-23T04:55:40.612Z,11.77
2022-10-23T04:56:27.626Z,12.27
2022-10-23T04:57:14.558Z,12.13
2022-10-23T04:58:01.396Z,13.48
2022-10-23T04:58:48.379Z,12.85
2022-10-23T04:59:35.439Z,14.18
2022-10-23T05:00:22.582Z,14.93
2022-10-23T05:01:13.058Z,14.68
2022-10-23T05:02:46.882Z,14.95
2022-10-23T05:03:33.910Z,14.60
2022-10-23T05:04:20.875Z,14.82
2022-10-23T05:05:08.959Z,13.98
2022-10-23T05:05:56.486Z,13.02
2022-10-23T05:06:43.484Z,13.18
2022-10-23T05:07:30.375Z,13.20
2022-10-23T05:08:18.240Z,13.70
2022-10-23T05:09:05.342Z,13.02
2022-10-23T05:09:52.246Z,12.85
2022-10-23T05:10:39.721Z,13.75
2022-10-23T05:11:26.700Z,12.88
2022-10-23T05:12:13.552Z,13.00
2022-10-23T05:13:00.492Z,13.23
2022-10-23T05:13:47.479Z,13.95
2022-10-23T05:14:34.420Z,13.93
2022-10-23T05:15:21.310Z,12.35
2022-10-23T05:16:08.268Z,13.15
2022-10-23T05:17:03.318Z,12.70
2022-10-23T05:17:53.587Z,11.45
2022-10-23T05:18:46.563Z,11.23
2022-10-23T05:19:38.178Z,11.00
2022-10-23T05:20:28.187Z,11.65
2022-10-23T05:21:23.026Z,11.90
2022-10-23T05:22:10.722Z,11.32
2022-10-23T05:22:59.533Z,11.63
2022-10-23T05:23:47.205Z,12.15
2022-10-23T05:24:34.129Z,11.23
2022-10-23T05:25:21.143Z,13.45
2022-10-23T05:26:08.098Z,13.07
2022-10-23T05:26:55.019Z,12.73
2022-10-23T05:27:42.187Z,11.88
2022-10-23T05:28:29.538Z,12.25
2022-10-23T05:29:16.352Z,11.88
2022-10-23T05:30:04.430Z,11.32
2022-10-23T05:30:51.454Z,11.50
2022-10-23T05:31:38.485Z,11.05
2022-10-23T05:32:26.664Z,11.45
2022-10-23T05:33:13.757Z,11.18
2022-10-23T05:34:00.808Z,11.02
2022-10-23T05:34:47.720Z,11.00
2022-10-23T05:35:34.868Z,10.77
2022-10-23T05:36:23.319Z,11.57
2022-10-23T05:37:13.719Z,10.93
2022-10-23T05:38:01.792Z,10.30
2022-10-23T05:38:48.845Z,9.93
2022-10-23T05:39:36.059Z,10.77
2022-10-23T05:40:23.093Z,10.68
2022-10-23T05:41:10.037Z,10.27
2022-10-23T05:41:56.914Z,9.50
2022-10-23T05:42:44.197Z,10.32
2022-10-23T05:43:31.786Z,9.75
2022-10-23T05:44:18.769Z,9.82
2022-10-23T05:45:06.317Z,10.30
2022-10-23T05:45:54.032Z,9.75
2022-10-23T05:46:42.424Z,9.93
2022-10-23T05:47:29.750Z,9.65
2022-10-23T05:48:33.467Z,10.60
2022-10-23T05:49:21.335Z,9.57
2022-10-23T05:50:08.659Z,9.75
2022-10-23T05:50:55.591Z,10.23
2022-10-23T05:51:42.468Z,10.07
2022-10-23T05:52:29.375Z,9.88
2022-10-23T05:53:16.304Z,9.40
2022-10-23T05:54:03.557Z,9.80
2022-10-23T05:54:53.641Z,9.25
2022-10-23T05:55:40.713Z,9.93
2022-10-23T05:56:27.615Z,10.15
2022-10-23T05:57:14.694Z,9.90
2022-10-23T05:58:05.239Z,10.02
2022-10-23T05:58:52.141Z,9.60
2022-10-23T05:59:39.090Z,10.15
2022-10-23T06:00:26.041Z,10.25
2022-10-23T06:01:14.711Z,10.65
2022-10-23T06:02:01.873Z,9.70
2022-10-23T06:02:48.842Z,9.57
2022-10-23T06:03:36.574Z,9.20
2022-10-23T06:04:23.388Z,9.30
2022-10-23T06:05:10.420Z,9.52
2022-10-23T06:05:57.458Z,10.07
2022-10-23T06:06:46.685Z,9.25
2022-10-23T06:07:35.847Z,9.05
2022-10-23T06:08:24.547Z,9.43
2022-10-23T06:09:11.449Z,9.63
2022-10-23T06:09:58.405Z,9.75
2022-10-23T06:10:45.336Z,9.57
2022-10-23T06:11:32.317Z,9.52
2022-10-23T06:12:20.554Z,9.45
2022-10-23T06:13:07.500Z,9.40
2022-10-23T06:13:54.443Z,9.73
2022-10-23T06:14:41.644Z,9.43
2022-10-23T06:15:28.527Z,9.27
2022-10-23T06:16:20.716Z,8.68
2022-10-23T06:17:07.701Z,10.35
2022-10-23T06:17:54.693Z,10.27
2022-10-23T06:18:42.275Z,10.10
2022-10-23T06:19:29.147Z,10.70
2022-10-23T06:20:17.269Z,9.48
2022-10-23T06:21:04.440Z,9.85
2022-10-23T06:21:51.366Z,9.10
2022-10-23T06:22:38.422Z,10.02
2022-10-23T06:23:25.349Z,10.93
2022-10-23T06:24:12.289Z,11.60
2022-10-23T06:24:59.239Z,10.40
2022-10-23T06:25:51.938Z,9.73
2022-10-23T06:26:38.759Z,10.50
2022-10-23T06:27:25.884Z,10.68
2022-10-23T06:28:15.819Z,10.57
2022-10-23T06:29:05.317Z,10.65
2022-10-23T06:29:52.389Z,11.02
2022-10-23T06:30:39.794Z,11.30
2022-10-23T06:31:28.420Z,11.07
2022-10-23T06:32:15.332Z,11.43
2022-10-23T06:33:04.599Z,11.18
2022-10-23T06:33:54.348Z,12.07
2022-10-23T06:34:41.280Z,10.77
2022-10-23T06:35:28.181Z,11.82
2022-10-23T06:36:15.087Z,11.52
2022-10-23T06:37:02.163Z,11.93
2022-10-23T06:37:49.109Z,12.63
2022-10-23T06:38:37.559Z,11.55
2022-10-23T06:39:26.236Z,12.98
2022-10-23T06:40:15.517Z,11.82
2022-10-23T06:41:02.675Z,12.45
2022-10-23T06:41:49.571Z,12.50
2022-10-23T06:42:36.469Z,12.27
2022-10-23T06:43:23.662Z,12.52
2022-10-23T06:44:11.670Z,13.57
2022-10-23T06:44:59.702Z,13.68
2022-10-23T06:45:49.341Z,12.82
2022-10-23T06:46:36.355Z,14.38
2022-10-23T06:47:23.185Z,14.82
2022-10-23T06:48:10.034Z,14.80
2022-10-23T06:48:56.969Z,13.30
2022-10-23T06:49:43.948Z,15.27
2022-10-23T06:50:33.587Z,22.30
2022-10-23T06:51:22.047Z,27.80
2022-10-23T06:52:14.525Z,29.70
2022-10-23T06:53:15.580Z,48.10
2022-10-23T06:54:02.616Z,63.80
2022-10-23T06:54:49.522Z,54.67
2022-10-23T06:56:29.518Z,24.10
2022-10-23T06:57:16.391Z,18.30
2022-10-23T06:58:03.403Z,14.45
2022-10-23T06:58:50.310Z,14.15
2022-10-23T06:59:37.157Z,12.15
2022-10-23T07:00:24.691Z,12.65
2022-10-23T07:01:13.860Z,12.32
2022-10-23T07:02:01.014Z,12.25
2022-10-23T07:02:47.991Z,11.32
2022-10-23T07:03:35.677Z,12.05
2022-10-23T07:04:22.794Z,11.98
2022-10-23T07:05:12.729Z,12.00
2022-10-23T07:06:02.449Z,11.48
2022-10-23T07:06:49.393Z,11.25
2022-10-23T07:07:36.325Z,11.50
2022-10-23T07:08:24.096Z,11.00
2022-10-23T07:09:11.329Z,10.88
2022-10-23T07:09:58.299Z,10.88
2022-10-23T07:10:45.574Z,11.38
2022-10-23T07:11:32.493Z,11.23
2022-10-23T07:12:19.485Z,10.45
2022-10-23T07:13:06.454Z,10.65
2022-10-23T07:13:54.075Z,10.52
2022-10-23T07:14:41.182Z,10.68
2022-10-23T07:15:28.189Z,10.75
2022-10-23T07:16:20.757Z,10.90
2022-10-23T07:17:07.635Z,10.95
2022-10-23T07:17:54.602Z,10.75
2022-10-23T07:18:41.628Z,10.13
2022-10-23T07:19:28.540Z,11.20
2022-10-23T07:20:15.563Z,11.55
2022-10-23T07:21:02.508Z,11.30
2022-10-23T07:21:49.477Z,11.45
2022-10-23T07:22:36.481Z,11.15
2022-10-23T07:23:23.369Z,11.27
2022-10-23T07:24:10.313Z,10.90
2022-10-23T07:24:57.233Z,10.27
2022-10-23T07:25:44.141Z,10.25
2022-10-23T07:26:32.958Z,11.30
2022-10-23T07:27:19.965Z,10.98
2022-10-23T07:28:07.419Z,10.77
2022-10-23T07:28:55.448Z,11.10
2022-10-23T07:29:42.520Z,10.50
2022-10-23T07:30:29.378Z,10.73
2022-10-23T07:31:16.817Z,10.32
2022-10-23T07:32:04.815Z,10.55
2022-10-23T07:32:51.901Z,9.65
2022-10-23T07:33:38.883Z,9.75
2022-10-23T07:34:26.282Z,10.38
2022-10-23T07:36:03.714Z,9.60
2022-10-23T07:36:50.606Z,10.10
2022-10-23T07:37:37.997Z,9.13
2022-10-23T07:38:24.949Z,8.23
2022-10-23T07:39:12.282Z,8.85
2022-10-23T07:39:59.178Z,8.60
2022-10-23T07:40:46.197Z,8.15
2022-10-23T07:41:33.221Z,7.25
2022-10-23T07:42:20.130Z,7.82
2022-10-23T07:43:07.050Z,7.93
2022-10-23T07:43:53.961Z,7.70
2022-10-23T07:44:40.878Z,7.40
2022-10-23T07:45:27.746Z,7.47
2022-10-23T07:46:14.815Z,7.20
2022-10-23T07:47:01.701Z,7.90
2022-10-23T07:47:52.459Z,7.07
2022-10-23T07:48:40.130Z,6.70
2022-10-23T07:49:27.093Z,5.82
2022-10-23T07:50:14.063Z,7.20
2022-10-23T07:51:03.365Z,6.87
2022-10-23T07:51:51.502Z,7.00
2022-10-23T07:52:38.695Z,6.20
2022-10-23T07:53:26.093Z,6.32
2022-10-23T07:54:13.222Z,5.75
2022-10-23T07:55:00.673Z,5.95
2022-10-23T07:55:59.088Z,5.85
2022-10-23T07:56:45.971Z,6.95
2022-10-23T07:57:32.965Z,6.10
2022-10-23T07:58:20.151Z,6.25
2022-10-23T07:59:07.005Z,5.82
2022-10-23T07:59:54.942Z,6.68
2022-10-23T08:00:42.096Z,6.68
2022-10-23T08:01:37.790Z,6.28
2022-10-23T08:02:24.799Z,8.05
2022-10-23T08:03:13.022Z,8.50
2022-10-23T08:04:00.728Z,8.10
2022-10-23T08:04:49.869Z,8.95
2022-10-23T08:05:36.882Z,7.37
2022-10-23T08:06:23.824Z,7.45
2022-10-23T08:07:10.769Z,8.32
2022-10-23T08:07:57.657Z,8.50
2022-10-23T08:09:34.752Z,8.02
2022-10-23T08:10:21.731Z,7.70
2022-10-23T08:11:11.414Z,7.37
2022-10-23T08:11:58.327Z,7.90
2022-10-23T08:12:45.440Z,8.95
2022-10-23T08:13:32.581Z,8.40
2022-10-23T08:14:19.508Z,8.93
2022-10-23T08:15:06.775Z,10.88
2022-10-23T08:15:54.128Z,12.57
2022-10-23T08:16:41.116Z,10.52
2022-10-23T08:17:28.399Z,12.68
2022-10-23T08:18:15.662Z,11.77
2022-10-23T08:19:03.600Z,11.02
2022-10-23T08:19:50.450Z,11.00
2022-10-23T08:20:41.104Z,10.90
2022-10-23T08:21:28.110Z,11.12
2022-10-23T08:22:15.398Z,10.85
2022-10-23T08:23:02.346Z,10.63
2022-10-23T08:23:49.293Z,10.98
2022-10-23T08:24:36.137Z,11.88
2022-10-23T08:25:25.246Z,11.12
2022-10-23T08:26:13.110Z,10.65
2022-10-23T08:27:00.104Z,10.75
2022-10-23T08:27:47.023Z,10.88
2022-10-23T08:28:33.987Z,10.20
2022-10-23T08:29:21.076Z,10.77
2022-10-23T08:30:08.508Z,10.63
2022-10-23T08:30:55.847Z,10.40
2022-10-23T08:31:42.787Z,10.82
2022-10-23T08:32:30.730Z,12.13
2022-10-23T08:33:17.767Z,10.80
2022-10-23T08:34:04.646Z,10.27
2022-10-23T08:34:51.524Z,10.43
2022-10-23T08:35:39.033Z,10.63
2022-10-23T08:36:28.154Z,10.20
2022-10-23T08:37:15.105Z,11.55
2022-10-23T08:38:01.868Z,12.55
2022-10-23T08:38:49.279Z,10.77
2022-10-23T08:39:36.804Z,10.40
2022-10-23T08:40:25.327Z,10.05
2022-10-23T08:41:34.245Z,9.75
2022-10-23T08:42:24.095Z,9.70
2022-10-23T08:43:10.984Z,9.55
2022-10-23T08:44:19.764Z,10.77
2022-10-23T08:45:11.632Z,10.88
2022-10-23T08:46:09.464Z,11.40
2022-10-23T08:47:06.315Z,10.63
2022-10-23T08:47:56.027Z,10.05
2022-10-23T08:48:50.705Z,10.77
2022-10-23T08:49:49.456Z,10.10
2022-10-23T08:51:28.870Z,9.70
2022-10-23T08:52:46.842Z,9.73
2022-10-23T08:53:46.085Z,9.35
2022-10-23T08:55:03.387Z,8.70
2022-10-23T08:55:57.466Z,8.63
2022-10-23T08:56:55.554Z,9.25
2022-10-23T08:57:50.912Z,8.40
2022-10-23T08:58:46.374Z,10.80
2022-10-23T08:59:43.422Z,9.75
2022-10-23T09:01:39.479Z,9.35
2022-10-23T09:02:29.920Z,10.23
2022-10-23T09:03:16.881Z,9.82
2022-10-23T09:04:05.073Z,9.80
2022-10-23T09:04:53.983Z,9.57
2022-10-23T09:06:41.209Z,9.32
2022-10-23T09:07:37.124Z,8.25
2022-10-23T09:08:27.044Z,8.73
2022-10-23T09:09:48.966Z,7.95
2022-10-23T09:11:14.881Z,7.00
2022-10-23T09:12:10.651Z,8.40
2022-10-23T09:13:01.161Z,8.05
2022-10-23T09:15:04.971Z,8.02
2022-10-23T09:16:05.380Z,7.80
2022-10-23T09:16:55.357Z,7.57
2022-10-23T09:17:46.042Z,8.05
2022-10-23T09:18:33.109Z,7.95
2022-10-23T09:19:26.498Z,8.05
2022-10-23T09:20:16.227Z,7.65
2022-10-23T09:21:03.256Z,7.80
2022-10-23T09:21:50.497Z,7.45
2022-10-23T09:22:37.416Z,7.47
2022-10-23T09:23:24.663Z,7.57
2022-10-23T09:24:18.078Z,7.43
2022-10-23T09:25:16.068Z,7.78
2022-10-23T09:26:05.168Z,7.55
2022-10-23T09:26:53.954Z,7.20
2022-10-23T09:27:48.633Z,6.97
2022-10-23T09:28:51.672Z,7.43
2022-10-23T09:29:50.221Z,7.37
2022-10-23T09:30:40.172Z,7.10
2022-10-23T09:31:27.095Z,7.72
2022-10-23T09:32:14.103Z,7.47
2022-10-23T09:33:01.988Z,7.35
2022-10-23T09:34:22.418Z,7.57
2022-10-23T09:35:24.888Z,6.32
2022-10-23T09:36:13.891Z,6.40
2022-10-23T09:37:03.383Z,6.53
2022-10-23T09:37:53.517Z,9.00
2022-10-23T09:38:50.833Z,9.48
2022-10-23T09:39:37.818Z,10.25
2022-10-23T09:40:50.744Z,10.35
2022-10-23T09:41:39.598Z,11.20
2022-10-23T09:42:26.863Z,10.77
2022-10-23T09:43:17.048Z,10.35
2022-10-23T09:44:18.288Z,10.05
2022-10-23T09:45:25.348Z,10.15
2022-10-23T09:46:12.563Z,9.80
2022-10-23T09:47:01.802Z,10.32
2022-10-23T09:47:48.692Z,10.68
2022-10-23T09:48:35.792Z,11.60
2022-10-23T09:49:33.972Z,11.48
2022-10-23T09:50:21.730Z,11.75
2022-10-23T09:51:21.508Z,10.90
2022-10-23T09:52:08.386Z,10.93
2022-10-23T09:52:55.835Z,10.50
2022-10-23T09:53:52.921Z,10.32
2022-10-23T09:54:44.575Z,10.27
2022-10-23T09:55:31.460Z,9.63
2022-10-23T09:56:36.406Z,10.18
2022-10-23T09:57:38.695Z,10.20
2022-10-23T09:58:32.465Z,9.02
2022-10-23T09:59:26.996Z,9.05
2022-10-23T10:00:19.357Z,9.00
2022-10-23T10:01:06.626Z,9.02
2022-10-23T10:02:00.289Z,9.13
2022-10-23T10:03:02.047Z,8.68
2022-10-23T10:03:50.677Z,8.52
2022-10-23T10:04:42.025Z,8.82
2022-10-23T10:05:55.921Z,9.55
2022-10-23T10:06:43.239Z,8.98
2022-10-23T10:07:33.523Z,9.00
2022-10-23T10:08:47.960Z,10.23
2022-10-23T10:09:34.912Z,8.77
2022-10-23T10:10:21.903Z,9.00
2022-10-23T10:11:46.857Z,8.80
2022-10-23T10:12:39.707Z,9.05
2022-10-23T10:13:42.079Z,8.82
2022-10-23T10:14:50.480Z,9.07
2022-10-23T10:15:48.214Z,9.15
2022-10-23T10:16:42.453Z,9.02
2022-10-23T10:17:48.151Z,8.20
2022-10-23T10:18:57.059Z,9.15
2022-10-23T10:20:37.815Z,8.60
2022-10-23T10:21:25.747Z,8.57
2022-10-23T10:22:29.230Z,8.63
2022-10-23T10:23:29.483Z,8.93
2022-10-23T10:24:39.936Z,8.82
2022-10-23T10:25:35.743Z,8.25
2022-10-23T10:26:39.875Z,9.20
2022-10-23T10:27:29.475Z,8.65
2022-10-23T10:28:41.322Z,9.03
2022-10-23T10:30:06.210Z,8.27
2022-10-23T10:31:13.399Z,8.18
2022-10-23T10:32:12.707Z,8.82
2022-10-23T10:33:28.350Z,8.18
2022-10-23T10:34:26.279Z,8.10
2022-10-23T10:35:32.262Z,8.73
2022-10-23T10:36:42.115Z,8.38
2022-10-23T10:37:55.294Z,7.75
2022-10-23T10:38:54.135Z,7.47
2022-10-23T10:40:03.703Z,7.62
2022-10-23T10:41:26.163Z,7.37
2022-10-23T10:42:37.308Z,7.18
2022-10-23T10:43:43.134Z,7.55
2022-10-23T10:45:13.707Z,5.80
2022-10-23T10:46:07.919Z,4.82
2022-10-23T10:47:37.772Z,4.22
2022-10-23T10:48:24.601Z,3.65
2022-10-23T10:49:15.981Z,4.00
2022-10-23T10:50:24.129Z,3.70
2022-10-23T10:51:27.992Z,3.67
2022-10-23T10:52:14.802Z,3.47
2022-10-23T10:53:07.555Z,3.60
2022-10-23T10:54:00.487Z,3.50
2022-10-23T10:55:15.392Z,3.30
2022-10-23T10:56:02.813Z,3.47
2022-10-23T10:56:49.930Z,3.30
2022-10-23T10:57:43.075Z,3.60
2022-10-23T10:58:40.683Z,3.60
2022-10-23T10:59:38.709Z,3.85
2022-10-23T11:00:26.559Z,3.70
2022-10-23T11:01:29.156Z,4.05
2022-10-23T11:02:29.987Z,4.00
2022-10-23T11:03:19.450Z,3.55
2022-10-23T11:04:23.631Z,3.70
2022-10-23T11:05:25.994Z,3.70
2022-10-23T11:06:16.532Z,3.87
2022-10-23T11:08:02.224Z,3.80
2022-10-23T11:08:57.389Z,3.90
2022-10-23T11:09:46.014Z,3.90
2022-10-23T11:10:34.120Z,4.00
2022-10-23T11:11:25.354Z,3.90
2022-10-23T11:12:23.028Z,3.53
2022-10-23T11:13:26.682Z,3.70
2022-10-23T11:14:34.124Z,3.65
2022-10-23T11:15:29.698Z,3.72